Terminal Aerodrome Forecast
Issued by NWS Buffalo, NY

Current Version | Previous Version | Text Only | Print | Product List | Glossary On
Versions: 1 2 3 4 5 6 7 8 9 10 11 12 13 14 15 16 17 18 19 20 21 22 23 24 25 26 27 28
000
FTUS41 KBUF 231700
TAFART
TAF
KART 231730Z 2318/2418 36014G22KT P6SM BKN035
     FM232300 02011KT P6SM BKN020
     FM240700 01004KT P6SM OVC035
     FM241100 VRB03KT P6SM OVC080
     FM241500 33007KT P6SM BKN090=

USA.gov is the U.S. government's official web portal to all federal, state and local government web resources and services.